createdAt,value
2019-01-29T00:00:19.160Z,27.40
2019-01-29T00:01:19.184Z,24.70
2019-01-29T00:02:19.142Z,25.40
2019-01-29T00:03:19.130Z,26.20
2019-01-29T00:04:19.113Z,23.40
2019-01-29T00:05:19.109Z,25.20
2019-01-29T00:06:19.096Z,23.20
2019-01-29T00:07:19.101Z,23.70
2019-01-29T00:08:19.160Z,24.90
2019-01-29T00:09:19.235Z,25.20
2019-01-29T00:10:19.046Z,26.80
2019-01-29T00:11:19.046Z,24.70
2019-01-29T00:12:19.038Z,24.60
2019-01-29T00:13:19.049Z,24.40
2019-01-29T00:14:19.056Z,21.70
2019-01-29T00:15:18.998Z,22.90
2019-01-29T00:16:18.988Z,20.90
2019-01-29T00:17:18.976Z,21.90
2019-01-29T00:18:18.985Z,22.70
2019-01-29T00:19:18.951Z,21.10
2019-01-29T00:20:18.942Z,20.10
2019-01-29T00:21:18.934Z,21.10
2019-01-29T00:22:18.951Z,21.80
2019-01-29T00:23:18.914Z,20.80
2019-01-29T00:24:18.978Z,22.90
2019-01-29T00:25:18.890Z,22.70
2019-01-29T00:26:18.877Z,22.80
2019-01-29T00:27:18.869Z,24.60
2019-01-29T00:28:18.855Z,24.70
2019-01-29T00:29:18.854Z,25.80
2019-01-29T00:30:18.852Z,24.80
2019-01-29T00:31:18.823Z,25.30
2019-01-29T00:32:18.813Z,23.70
2019-01-29T00:33:18.798Z,25.80
2019-01-29T00:34:18.790Z,24.10
2019-01-29T00:35:18.788Z,25.50
2019-01-29T00:36:18.770Z,25.30
2019-01-29T00:37:18.753Z,24.80
2019-01-29T00:38:18.750Z,26.90
2019-01-29T00:39:18.739Z,31.10
2019-01-29T00:40:18.726Z,28.00
2019-01-29T00:41:18.721Z,25.50
2019-01-29T00:42:18.708Z,26.00
2019-01-29T00:43:18.695Z,26.00
2019-01-29T00:44:18.739Z,28.80
2019-01-29T00:45:18.671Z,26.10
2019-01-29T00:46:18.668Z,27.60
2019-01-29T00:47:18.663Z,27.30
2019-01-29T00:48:18.642Z,26.10
2019-01-29T00:49:18.624Z,26.20
2019-01-29T00:50:18.622Z,27.90
2019-01-29T00:51:18.638Z,26.70
2019-01-29T00:52:18.603Z,27.60
2019-01-29T00:53:18.621Z,25.70
2019-01-29T00:54:18.574Z,28.80
2019-01-29T00:55:18.564Z,27.30
2019-01-29T00:56:18.562Z,27.40
2019-01-29T00:57:18.541Z,28.40
2019-01-29T00:58:18.539Z,26.10
2019-01-29T00:59:18.522Z,28.50
2019-01-29T01:00:18.510Z,28.00
2019-01-29T01:01:18.493Z,27.60
2019-01-29T01:02:18.513Z,27.70
2019-01-29T01:03:18.479Z,27.00
2019-01-29T01:04:18.489Z,28.10
2019-01-29T01:05:18.455Z,27.80
2019-01-29T01:06:18.437Z,26.70
2019-01-29T01:07:18.431Z,27.10
2019-01-29T01:08:18.416Z,28.00
2019-01-29T01:09:18.410Z,27.40
2019-01-29T01:10:18.563Z,27.10
2019-01-29T01:11:18.385Z,27.40
2019-01-29T01:12:18.370Z,26.40
2019-01-29T01:13:18.363Z,28.90
2019-01-29T01:14:18.351Z,29.70
2019-01-29T01:15:18.356Z,29.40
2019-01-29T01:16:18.330Z,28.60
2019-01-29T01:17:18.325Z,30.00
2019-01-29T01:18:18.308Z,31.40
2019-01-29T01:19:18.304Z,28.90
2019-01-29T01:20:18.290Z,31.00
2019-01-29T01:21:18.296Z,30.20
2019-01-29T01:22:18.265Z,30.60
2019-01-29T01:23:18.261Z,30.00
2019-01-29T01:24:18.249Z,30.80
2019-01-29T01:25:18.240Z,31.50
2019-01-29T01:26:18.244Z,32.00
2019-01-29T01:27:18.211Z,28.80
2019-01-29T01:28:18.201Z,30.80
2019-01-29T01:29:18.199Z,28.30
2019-01-29T01:30:18.215Z,28.30
2019-01-29T01:31:18.181Z,29.40
2019-01-29T01:32:18.175Z,29.30
2019-01-29T01:33:18.171Z,29.00
2019-01-29T01:34:18.148Z,26.00
2019-01-29T01:35:18.129Z,25.10
2019-01-29T01:36:18.124Z,25.60
2019-01-29T01:37:18.116Z,26.80
2019-01-29T01:38:18.111Z,25.00
2019-01-29T01:39:18.086Z,21.30
2019-01-29T01:40:18.078Z,20.60
2019-01-29T01:41:18.068Z,20.90
2019-01-29T01:42:18.053Z,24.30
2019-01-29T01:43:18.083Z,20.20
2019-01-29T01:44:18.039Z,21.10
2019-01-29T01:45:18.023Z,21.00
2019-01-29T01:46:18.016Z,21.00
2019-01-29T01:47:18.002Z,20.40
2019-01-29T01:48:17.990Z,19.00
2019-01-29T01:49:18.006Z,19.60
2019-01-29T01:50:17.967Z,19.70
2019-01-29T01:51:17.962Z,15.10
2019-01-29T01:52:17.948Z,17.60
2019-01-29T01:53:17.938Z,16.20
2019-01-29T01:54:17.931Z,14.90
2019-01-29T01:55:17.933Z,15.30
2019-01-29T01:56:17.902Z,13.30
2019-01-29T01:57:17.895Z,13.50
2019-01-29T01:58:17.883Z,12.70
2019-01-29T01:59:17.892Z,11.50
2019-01-29T02:00:17.875Z,12.10
2019-01-29T02:01:17.873Z,10.40
2019-01-29T02:02:17.839Z,11.50
2019-01-29T02:03:17.834Z,10.90
2019-01-29T02:04:17.823Z,11.20
2019-01-29T02:05:17.808Z,10.30
2019-01-29T02:06:17.809Z,11.00
2019-01-29T02:07:17.801Z,12.00
2019-01-29T02:08:17.773Z,11.40
2019-01-29T02:09:17.784Z,10.60
2019-01-29T02:10:17.780Z,12.10
2019-01-29T02:11:17.743Z,11.90
2019-01-29T02:12:17.745Z,13.20
2019-01-29T02:13:17.725Z,13.60
2019-01-29T02:14:17.715Z,13.00
2019-01-29T02:15:17.701Z,13.00
2019-01-29T02:16:17.703Z,15.40
2019-01-29T02:17:17.682Z,14.90
2019-01-29T02:18:17.682Z,14.40
2019-01-29T02:19:17.662Z,14.50
2019-01-29T02:20:17.647Z,14.80
2019-01-29T02:21:17.637Z,13.40
2019-01-29T02:22:17.627Z,15.20
2019-01-29T02:23:17.620Z,15.00
2019-01-29T02:24:17.618Z,15.30
2019-01-29T02:25:17.594Z,15.00
2019-01-29T02:26:17.581Z,14.90
2019-01-29T02:27:17.579Z,14.80
2019-01-29T02:28:17.563Z,16.60
2019-01-29T02:29:17.557Z,13.00
2019-01-29T02:30:17.537Z,14.50
2019-01-29T02:31:17.538Z,13.30
2019-01-29T02:32:17.518Z,13.70
2019-01-29T02:33:17.514Z,14.40
2019-01-29T02:34:17.499Z,13.80
2019-01-29T02:35:17.502Z,13.80
2019-01-29T02:36:17.480Z,14.00
2019-01-29T02:37:17.469Z,13.20
2019-01-29T02:38:17.456Z,15.40
2019-01-29T02:39:17.455Z,12.50
2019-01-29T02:40:17.439Z,14.50
2019-01-29T02:41:17.447Z,13.90
2019-01-29T02:42:17.408Z,13.30
2019-01-29T02:43:17.399Z,14.90
2019-01-29T02:44:17.389Z,13.10
2019-01-29T02:45:17.385Z,11.90
2019-01-29T02:46:17.381Z,11.60
2019-01-29T02:47:17.372Z,12.20
2019-01-29T02:48:17.347Z,11.30
2019-01-29T02:49:17.334Z,11.30
2019-01-29T02:50:17.333Z,10.80
2019-01-29T02:51:17.998Z,11.50
2019-01-29T02:52:17.320Z,10.50
2019-01-29T02:53:18.508Z,9.90
2019-01-29T02:54:17.283Z,10.80
2019-01-29T02:55:17.269Z,10.80
2019-01-29T02:56:17.270Z,10.60
2019-01-29T02:57:17.263Z,12.30
2019-01-29T02:58:17.259Z,11.80
2019-01-29T02:59:17.252Z,10.20
2019-01-29T03:00:17.216Z,10.20
2019-01-29T03:01:17.207Z,10.20
2019-01-29T03:02:17.201Z,10.60
2019-01-29T03:03:17.189Z,12.30
2019-01-29T03:04:17.189Z,11.40
2019-01-29T03:05:17.175Z,10.10
2019-01-29T03:06:17.153Z,11.80
2019-01-29T03:07:17.142Z,10.80
2019-01-29T03:08:17.142Z,10.60
2019-01-29T03:09:17.143Z,9.20
2019-01-29T03:10:17.112Z,9.90
2019-01-29T03:11:17.103Z,10.10
2019-01-29T03:12:17.091Z,11.00
2019-01-29T03:13:17.099Z,9.00
2019-01-29T03:14:17.077Z,9.00
2019-01-29T03:15:17.069Z,9.80
2019-01-29T03:16:17.048Z,9.80
2019-01-29T03:17:17.032Z,9.10
2019-01-29T03:18:17.026Z,8.80
2019-01-29T03:19:17.034Z,8.40
2019-01-29T03:20:17.016Z,9.50
2019-01-29T03:21:17.018Z,9.40
2019-01-29T03:22:16.979Z,9.00
2019-01-29T03:23:16.970Z,9.10
2019-01-29T03:24:16.964Z,7.70
2019-01-29T03:25:16.954Z,8.10
2019-01-29T03:26:16.966Z,8.10
2019-01-29T03:27:16.930Z,8.10
2019-01-29T03:28:16.923Z,8.60
2019-01-29T03:29:16.904Z,7.90
2019-01-29T03:30:16.902Z,8.50
2019-01-29T03:31:16.890Z,8.00
2019-01-29T03:32:16.896Z,8.50
2019-01-29T03:33:16.865Z,8.80
2019-01-29T03:34:16.851Z,8.50
2019-01-29T03:35:16.840Z,9.60
2019-01-29T03:36:16.842Z,8.60
2019-01-29T03:37:16.826Z,9.50
2019-01-29T03:38:16.832Z,8.70
2019-01-29T03:39:16.840Z,9.20
2019-01-29T03:40:16.847Z,8.90
2019-01-29T03:41:16.776Z,8.00
2019-01-29T03:42:16.769Z,8.40
2019-01-29T03:43:16.765Z,9.40
2019-01-29T03:44:16.742Z,8.50
2019-01-29T03:45:16.746Z,8.10
2019-01-29T03:46:16.732Z,9.00
2019-01-29T03:47:16.719Z,8.00
2019-01-29T03:48:16.710Z,8.60
2019-01-29T03:49:16.708Z,8.80
2019-01-29T03:50:16.682Z,8.40
2019-01-29T03:51:16.682Z,9.00
2019-01-29T03:52:16.658Z,7.40
2019-01-29T03:53:16.660Z,8.40
2019-01-29T03:54:16.645Z,9.70
2019-01-29T03:55:16.646Z,9.90
2019-01-29T03:56:16.619Z,8.30
2019-01-29T03:57:16.603Z,9.50
2019-01-29T03:58:16.595Z,9.00
2019-01-29T03:59:16.582Z,7.70
2019-01-29T04:00:16.646Z,7.90
2019-01-29T04:01:16.591Z,8.40
2019-01-29T04:02:16.553Z,8.50
2019-01-29T04:03:16.547Z,8.70
2019-01-29T04:04:16.535Z,9.40
2019-01-29T04:05:16.526Z,9.30
2019-01-29T04:06:16.518Z,9.90
2019-01-29T04:07:16.539Z,8.50
2019-01-29T04:08:16.491Z,9.40
2019-01-29T04:09:16.474Z,9.00
2019-01-29T04:10:16.531Z,9.20
2019-01-29T04:11:16.455Z,9.30
2019-01-29T04:12:16.457Z,8.70
2019-01-29T04:13:16.436Z,9.70
2019-01-29T04:14:16.436Z,9.60
2019-01-29T04:15:16.411Z,9.40
2019-01-29T04:16:16.410Z,9.10
2019-01-29T04:17:16.425Z,9.40
2019-01-29T04:18:16.395Z,10.20
2019-01-29T04:19:16.399Z,10.90
2019-01-29T04:20:16.357Z,9.60
2019-01-29T04:21:16.350Z,11.20
2019-01-29T04:22:16.337Z,9.90
2019-01-29T04:23:16.336Z,9.90
2019-01-29T04:24:16.331Z,9.90
2019-01-29T04:25:16.309Z,10.20
2019-01-29T04:26:16.295Z,10.30
2019-01-29T04:27:16.287Z,11.50
2019-01-29T04:28:16.273Z,10.80
2019-01-29T04:29:16.278Z,10.20
2019-01-29T04:30:16.285Z,10.90
2019-01-29T04:31:16.263Z,10.40
2019-01-29T04:32:16.234Z,10.40
2019-01-29T04:33:16.226Z,11.20
2019-01-29T04:34:16.220Z,12.50
2019-01-29T04:35:16.222Z,12.80
2019-01-29T04:36:16.211Z,13.00
2019-01-29T04:37:16.181Z,12.10
2019-01-29T04:38:16.167Z,12.50
2019-01-29T04:39:16.160Z,12.00
2019-01-29T04:40:16.153Z,11.90
2019-01-29T04:41:16.151Z,11.10
2019-01-29T04:42:16.136Z,13.10
2019-01-29T04:43:16.127Z,12.90
2019-01-29T04:44:16.102Z,13.10
2019-01-29T04:45:16.093Z,13.00
2019-01-29T04:46:16.094Z,13.00
2019-01-29T04:47:16.071Z,12.20
2019-01-29T04:48:16.069Z,13.00
2019-01-29T04:49:16.047Z,13.70
2019-01-29T04:50:16.039Z,13.20
2019-01-29T04:51:16.028Z,14.30
2019-01-29T04:52:16.028Z,13.90
2019-01-29T04:53:16.004Z,14.20
2019-01-29T04:54:15.999Z,13.20
2019-01-29T04:55:15.983Z,15.00
2019-01-29T04:56:15.975Z,15.60
2019-01-29T04:57:15.978Z,14.80
2019-01-29T04:58:15.965Z,16.00
2019-01-29T04:59:15.943Z,14.30
2019-01-29T05:00:15.961Z,15.60
2019-01-29T05:01:15.917Z,14.50
2019-01-29T05:02:15.909Z,15.20
2019-01-29T05:03:15.905Z,15.60
2019-01-29T05:04:15.894Z,16.40
2019-01-29T05:05:15.879Z,15.60
2019-01-29T05:06:15.966Z,15.50
2019-01-29T05:07:15.855Z,15.40
2019-01-29T05:08:15.845Z,14.50
2019-01-29T05:09:15.842Z,15.60
2019-01-29T05:10:15.822Z,14.20
2019-01-29T05:11:15.818Z,16.90
2019-01-29T05:12:15.811Z,16.70
2019-01-29T05:13:15.797Z,15.60
2019-01-29T05:14:15.784Z,15.90
2019-01-29T05:15:15.780Z,16.50
2019-01-29T05:16:15.762Z,16.30
2019-01-29T05:17:15.752Z,15.00
2019-01-29T05:18:15.745Z,15.90
2019-01-29T05:19:15.726Z,17.20
2019-01-29T05:20:15.724Z,16.90
2019-01-29T05:21:15.706Z,18.00
2019-01-29T05:22:15.696Z,15.40
2019-01-29T05:23:15.698Z,16.30
2019-01-29T05:24:15.683Z,16.80
2019-01-29T05:25:15.664Z,15.90
2019-01-29T05:26:15.663Z,15.30
2019-01-29T05:27:15.646Z,16.60
2019-01-29T05:28:15.630Z,16.90
2019-01-29T05:29:15.627Z,17.20
2019-01-29T05:30:15.611Z,16.30
2019-01-29T05:31:15.602Z,17.30
2019-01-29T05:32:15.596Z,14.10
2019-01-29T05:33:15.577Z,17.80
2019-01-29T05:34:15.566Z,16.60
2019-01-29T05:35:15.564Z,16.10
2019-01-29T05:36:15.567Z,15.90
2019-01-29T05:37:15.539Z,17.20
2019-01-29T05:38:15.547Z,14.70
2019-01-29T05:39:15.511Z,15.90
2019-01-29T05:40:15.503Z,15.10
2019-01-29T05:41:15.505Z,19.40
2019-01-29T05:42:15.482Z,15.30
2019-01-29T05:43:15.480Z,14.40
2019-01-29T05:44:15.488Z,20.90
2019-01-29T05:45:15.448Z,15.30
2019-01-29T05:46:15.442Z,14.80
2019-01-29T05:47:15.444Z,13.20
2019-01-29T05:48:15.418Z,15.80
2019-01-29T05:49:15.419Z,13.90
2019-01-29T05:50:15.394Z,12.90
2019-01-29T05:51:15.384Z,12.90
2019-01-29T05:52:15.379Z,13.70
2019-01-29T05:53:15.380Z,12.60
2019-01-29T05:54:16.377Z,14.00
2019-01-29T05:55:15.355Z,12.40
2019-01-29T05:56:15.328Z,14.70
2019-01-29T05:57:15.323Z,13.40
2019-01-29T05:58:15.320Z,15.30
2019-01-29T05:59:15.376Z,14.50
2019-01-29T06:00:15.331Z,14.10
2019-01-29T06:01:15.296Z,13.70
2019-01-29T06:02:15.270Z,14.20
2019-01-29T06:03:15.267Z,15.50
2019-01-29T06:04:15.251Z,14.70
2019-01-29T06:05:15.270Z,14.70
2019-01-29T06:06:15.267Z,15.00
2019-01-29T06:07:15.233Z,13.90
2019-01-29T06:08:15.201Z,12.80
2019-01-29T06:09:15.197Z,14.50
2019-01-29T06:10:15.201Z,13.40
2019-01-29T06:11:15.191Z,14.40
2019-01-29T06:12:15.179Z,12.10
2019-01-29T06:13:15.161Z,13.20
2019-01-29T06:14:15.223Z,12.40
2019-01-29T06:15:15.129Z,13.70
2019-01-29T06:16:15.127Z,13.10
2019-01-29T06:17:15.123Z,13.20
2019-01-29T06:18:15.144Z,13.30
2019-01-29T06:19:15.083Z,12.50
2019-01-29T06:20:15.073Z,11.10
2019-01-29T06:21:15.067Z,13.90
2019-01-29T06:22:15.086Z,13.10
2019-01-29T06:23:15.062Z,13.80
2019-01-29T06:24:15.062Z,14.40
2019-01-29T06:25:15.024Z,13.60
2019-01-29T06:26:15.016Z,14.30
2019-01-29T06:27:15.002Z,12.80
2019-01-29T06:28:14.995Z,13.70
2019-01-29T06:29:15.016Z,12.50
2019-01-29T06:30:14.975Z,14.10
2019-01-29T06:31:14.956Z,11.40
2019-01-29T06:32:14.946Z,12.90
2019-01-29T06:33:14.946Z,13.50
2019-01-29T06:34:14.927Z,12.40
2019-01-29T06:35:14.934Z,12.70
2019-01-29T06:36:14.904Z,14.00
2019-01-29T06:37:14.891Z,13.00
2019-01-29T06:38:14.932Z,11.70
2019-01-29T06:39:14.890Z,13.00
2019-01-29T06:40:14.869Z,13.40
2019-01-29T06:41:14.873Z,13.20
2019-01-29T06:42:14.842Z,12.90
2019-01-29T06:43:14.828Z,13.30
2019-01-29T06:44:14.819Z,13.80
2019-01-29T06:45:14.820Z,14.10
2019-01-29T06:46:14.813Z,14.20
2019-01-29T06:47:14.795Z,15.10
2019-01-29T06:48:14.782Z,12.90
2019-01-29T06:49:14.763Z,14.60
2019-01-29T06:50:14.766Z,12.00
2019-01-29T06:51:14.751Z,14.40
2019-01-29T06:52:14.743Z,13.80
2019-01-29T06:53:14.724Z,15.10
2019-01-29T06:54:14.709Z,13.80
2019-01-29T06:55:14.704Z,15.70
2019-01-29T06:56:14.713Z,14.70
2019-01-29T06:57:14.689Z,13.70
2019-01-29T06:58:14.682Z,15.20
2019-01-29T06:59:14.669Z,13.00
2019-01-29T07:00:14.653Z,14.50
2019-01-29T07:01:14.633Z,14.00
2019-01-29T07:02:14.630Z,16.70
2019-01-29T07:03:14.623Z,15.10
2019-01-29T07:04:14.612Z,14.40
2019-01-29T07:05:14.598Z,15.10
2019-01-29T07:06:14.588Z,14.90
2019-01-29T07:07:14.570Z,14.70
2019-01-29T07:08:14.564Z,13.70
2019-01-29T07:09:14.558Z,13.80
2019-01-29T07:10:14.550Z,14.40
2019-01-29T07:11:14.529Z,15.70
2019-01-29T07:12:14.518Z,13.10
2019-01-29T07:13:14.506Z,17.10
2019-01-29T07:14:14.496Z,14.40
2019-01-29T07:15:14.505Z,13.90
2019-01-29T07:16:14.472Z,14.10
2019-01-29T07:17:14.472Z,13.50
2019-01-29T07:18:14.450Z,12.80
2019-01-29T07:19:14.446Z,13.60
2019-01-29T07:20:14.434Z,12.30
2019-01-29T07:21:14.439Z,12.60
2019-01-29T07:22:14.410Z,12.10
2019-01-29T07:23:14.406Z,11.20
2019-01-29T07:24:14.388Z,11.20
2019-01-29T07:25:14.380Z,11.50
2019-01-29T07:26:14.382Z,12.80
2019-01-29T07:27:14.378Z,13.30
2019-01-29T07:28:14.345Z,12.30
2019-01-29T07:29:14.347Z,11.60
2019-01-29T07:30:14.344Z,10.60
2019-01-29T07:31:14.316Z,11.30
2019-01-29T07:32:14.348Z,9.30
2019-01-29T07:33:14.295Z,11.40
2019-01-29T07:34:14.279Z,11.30
2019-01-29T07:35:14.275Z,11.10
2019-01-29T07:36:14.272Z,10.40
2019-01-29T07:37:21.892Z,9.90
2019-01-29T07:38:15.234Z,10.10
2019-01-29T07:39:14.309Z,11.50
2019-01-29T07:40:14.345Z,9.90
2019-01-29T07:41:14.214Z,10.90
2019-01-29T07:42:14.200Z,9.20
2019-01-29T07:43:14.193Z,10.00
2019-01-29T07:44:14.189Z,8.60
2019-01-29T07:45:14.166Z,10.70
2019-01-29T07:46:14.160Z,10.70
2019-01-29T07:47:14.147Z,12.30
2019-01-29T07:48:14.144Z,12.60
2019-01-29T07:49:14.130Z,9.10
2019-01-29T07:50:14.119Z,10.40
2019-01-29T07:51:14.102Z,13.80
2019-01-29T07:52:14.091Z,14.40
2019-01-29T07:53:14.104Z,12.80
2019-01-29T07:54:14.067Z,11.60
2019-01-29T07:55:14.073Z,11.10
2019-01-29T07:56:14.050Z,12.90
2019-01-29T07:57:14.033Z,20.80
2019-01-29T07:58:14.027Z,15.20
2019-01-29T07:59:14.062Z,13.00
2019-01-29T08:00:14.008Z,13.60
2019-01-29T08:01:13.999Z,10.80
2019-01-29T08:02:13.982Z,14.10
2019-01-29T08:03:13.967Z,14.40
2019-01-29T08:04:13.967Z,13.50
2019-01-29T08:05:13.947Z,12.50
2019-01-29T08:06:13.950Z,16.10
2019-01-29T08:07:13.924Z,16.40
2019-01-29T08:08:13.921Z,18.70
2019-01-29T08:09:13.905Z,13.50
2019-01-29T08:10:13.899Z,18.30
2019-01-29T08:11:13.892Z,13.70
2019-01-29T08:12:13.893Z,18.80
2019-01-29T08:13:13.862Z,15.60
2019-01-29T08:14:13.854Z,16.40
2019-01-29T08:15:13.842Z,17.70
2019-01-29T08:16:15.519Z,18.30
2019-01-29T08:17:13.824Z,13.90
2019-01-29T08:18:13.890Z,14.00
2019-01-29T08:19:13.796Z,17.40
2019-01-29T08:20:13.792Z,15.50
2019-01-29T08:21:13.795Z,15.30
2019-01-29T08:22:13.779Z,14.40
2019-01-29T08:23:13.768Z,15.10
2019-01-29T08:24:13.753Z,18.80
2019-01-29T08:25:13.734Z,16.90
2019-01-29T08:26:13.730Z,14.40
2019-01-29T08:27:13.716Z,16.80
2019-01-29T08:28:13.715Z,15.40
2019-01-29T08:29:13.718Z,14.40
2019-01-29T08:30:13.679Z,16.40
2019-01-29T08:31:13.668Z,16.30
2019-01-29T08:32:13.666Z,15.50
2019-01-29T08:33:13.656Z,14.40
2019-01-29T08:34:13.642Z,14.50
2019-01-29T08:35:13.651Z,17.80
2019-01-29T08:36:13.615Z,16.50
2019-01-29T08:37:13.609Z,15.10
2019-01-29T08:38:13.598Z,16.00
2019-01-29T08:39:13.608Z,16.40
2019-01-29T08:40:13.587Z,15.60
2019-01-29T08:41:13.597Z,16.50
2019-01-29T08:42:13.556Z,16.50
2019-01-29T08:43:13.546Z,12.20
2019-01-29T08:44:13.532Z,15.40
2019-01-29T08:45:13.530Z,18.10
2019-01-29T08:46:13.528Z,15.20
2019-01-29T08:47:13.529Z,15.40
2019-01-29T08:48:13.494Z,14.20
2019-01-29T08:49:13.478Z,17.30
2019-01-29T08:50:13.473Z,16.80
2019-01-29T08:51:13.461Z,16.70
2019-01-29T08:52:13.468Z,14.90
2019-01-29T08:53:13.433Z,14.90
2019-01-29T08:54:13.423Z,14.00
2019-01-29T08:55:13.416Z,18.10
2019-01-29T08:56:13.410Z,16.40
2019-01-29T08:57:13.397Z,14.50
2019-01-29T08:58:13.403Z,16.80
2019-01-29T08:59:13.370Z,15.80
2019-01-29T09:00:13.359Z,14.80
2019-01-29T09:01:13.353Z,16.90
2019-01-29T09:02:13.335Z,16.00
2019-01-29T09:03:13.344Z,16.60
2019-01-29T09:04:13.339Z,14.80
2019-01-29T09:05:13.308Z,16.30
2019-01-29T09:06:13.295Z,14.70
2019-01-29T09:07:13.293Z,16.90
2019-01-29T09:08:13.379Z,15.10
2019-01-29T09:09:13.274Z,14.20
2019-01-29T09:10:13.277Z,13.00
2019-01-29T09:11:13.257Z,14.50
2019-01-29T09:12:13.232Z,14.00
2019-01-29T09:13:13.231Z,14.30
2019-01-29T09:14:13.208Z,14.70
2019-01-29T09:15:13.212Z,14.50
2019-01-29T09:16:13.192Z,14.50
2019-01-29T09:17:13.184Z,15.80
2019-01-29T09:18:13.167Z,11.70
2019-01-29T09:19:13.163Z,13.80
2019-01-29T09:20:13.152Z,15.20
2019-01-29T09:21:13.448Z,16.70
2019-01-29T09:22:13.126Z,14.40
2019-01-29T09:23:13.112Z,13.20
2019-01-29T09:24:13.174Z,13.00
2019-01-29T09:25:19.921Z,14.60
2019-01-29T09:26:14.096Z,13.70
2019-01-29T09:27:13.084Z,14.40
2019-01-29T09:28:18.393Z,15.50
2019-01-29T09:29:17.855Z,14.70
2019-01-29T09:30:13.033Z,14.00
2019-01-29T09:31:13.022Z,13.70
2019-01-29T09:32:13.030Z,12.80
2019-01-29T09:33:13.003Z,14.50
2019-01-29T09:34:13.001Z,14.50
2019-01-29T09:35:12.978Z,15.40
2019-01-29T09:36:12.970Z,15.70
2019-01-29T09:37:12.958Z,16.30
2019-01-29T09:38:12.964Z,14.70
2019-01-29T09:39:12.935Z,14.30
2019-01-29T09:40:12.927Z,17.50
2019-01-29T09:41:12.916Z,14.00
2019-01-29T09:42:12.913Z,13.90
2019-01-29T09:43:12.898Z,17.30
2019-01-29T09:44:12.896Z,17.40
2019-01-29T09:45:12.871Z,14.90
2019-01-29T09:46:12.931Z,14.80
2019-01-29T09:47:12.849Z,14.50
2019-01-29T09:48:12.843Z,15.80
2019-01-29T09:49:12.833Z,14.30
2019-01-29T09:50:12.839Z,15.90
2019-01-29T09:51:12.807Z,15.20
2019-01-29T09:52:12.797Z,14.20
2019-01-29T09:53:12.784Z,15.90
2019-01-29T09:54:12.782Z,15.10
2019-01-29T09:55:13.690Z,15.20
2019-01-29T09:56:12.802Z,14.00
2019-01-29T09:57:12.742Z,15.80
2019-01-29T09:58:12.733Z,17.60
2019-01-29T09:59:12.731Z,14.40
2019-01-29T10:00:12.719Z,13.60
2019-01-29T10:01:12.714Z,15.10
2019-01-29T10:02:12.703Z,13.20
2019-01-29T10:03:12.681Z,15.70
2019-01-29T10:04:12.668Z,13.90
2019-01-29T10:05:12.677Z,14.90
2019-01-29T10:06:12.653Z,12.00
2019-01-29T10:07:12.652Z,12.20
2019-01-29T10:08:12.636Z,16.30
2019-01-29T10:09:12.615Z,15.20
2019-01-29T10:10:12.606Z,18.10
2019-01-29T10:11:12.596Z,17.80
2019-01-29T10:12:12.590Z,17.50
2019-01-29T10:13:12.593Z,16.20
2019-01-29T10:14:12.560Z,15.10
2019-01-29T10:15:12.550Z,14.90
2019-01-29T10:16:12.540Z,13.30
2019-01-29T10:17:12.531Z,16.40
2019-01-29T10:18:12.538Z,18.00
2019-01-29T10:19:12.519Z,14.10
2019-01-29T10:20:12.505Z,15.10
2019-01-29T10:21:12.486Z,15.70
2019-01-29T10:22:12.486Z,15.60
2019-01-29T10:23:12.469Z,15.00
2019-01-29T10:24:12.484Z,16.20
2019-01-29T10:25:12.520Z,14.80
2019-01-29T10:26:12.432Z,17.20
2019-01-29T10:27:12.426Z,16.20
2019-01-29T10:28:12.414Z,14.00
2019-01-29T10:29:12.408Z,13.00
2019-01-29T10:30:12.398Z,14.00
2019-01-29T10:31:12.382Z,13.00
2019-01-29T10:32:12.369Z,15.00
2019-01-29T10:33:12.366Z,13.80
2019-01-29T10:34:12.353Z,12.60
2019-01-29T10:35:12.350Z,12.50
2019-01-29T10:36:12.336Z,13.20
2019-01-29T10:37:12.340Z,11.60
2019-01-29T10:38:12.312Z,17.30
2019-01-29T10:39:12.301Z,13.50
2019-01-29T10:40:12.290Z,14.50
2019-01-29T10:41:12.294Z,14.60
2019-01-29T10:42:12.274Z,14.60
2019-01-29T10:43:12.258Z,15.00
2019-01-29T10:44:12.246Z,14.50
2019-01-29T10:45:12.240Z,14.60
2019-01-29T10:46:12.233Z,14.90
2019-01-29T10:47:12.218Z,14.30
2019-01-29T10:48:12.208Z,14.10
2019-01-29T10:49:12.192Z,16.10
2019-01-29T10:50:12.184Z,14.30
2019-01-29T10:51:12.174Z,13.60
2019-01-29T10:52:12.173Z,15.10
2019-01-29T10:53:12.177Z,13.30
2019-01-29T10:54:12.145Z,14.10
2019-01-29T10:55:12.137Z,11.60
2019-01-29T10:56:12.118Z,12.50
2019-01-29T10:57:12.114Z,11.00
2019-01-29T10:58:12.106Z,10.30
2019-01-29T10:59:12.087Z,11.50
2019-01-29T11:00:12.313Z,11.70
2019-01-29T11:01:12.067Z,10.60
2019-01-29T11:02:12.062Z,12.10
2019-01-29T11:03:12.051Z,11.60
2019-01-29T11:04:12.048Z,12.10
2019-01-29T11:05:12.048Z,15.20
2019-01-29T11:06:12.018Z,10.90
2019-01-29T11:07:11.997Z,13.60
2019-01-29T11:08:11.991Z,12.40
2019-01-29T11:09:11.984Z,11.60
2019-01-29T11:10:11.978Z,12.70
2019-01-29T11:11:11.955Z,13.80
2019-01-29T11:12:11.943Z,10.30
2019-01-29T11:13:11.931Z,12.90
2019-01-29T11:14:11.917Z,13.60
2019-01-29T11:15:11.918Z,12.50
2019-01-29T11:16:11.898Z,13.20
2019-01-29T11:17:11.890Z,13.20
2019-01-29T11:18:11.875Z,13.30
2019-01-29T11:19:11.871Z,14.00
2019-01-29T11:20:11.858Z,10.20
2019-01-29T11:21:11.853Z,12.80
2019-01-29T11:22:11.836Z,12.90
2019-01-29T11:23:11.822Z,12.10
2019-01-29T11:24:11.814Z,11.90
2019-01-29T11:25:11.800Z,13.80
2019-01-29T11:26:11.797Z,12.00
2019-01-29T11:27:11.791Z,13.50
2019-01-29T16:09:14.709Z,21.20
2019-01-29T16:09:57.245Z,16.40
2019-01-29T16:10:57.310Z,15.40
2019-01-29T16:12:27.709Z,13.40
2019-01-29T16:13:27.686Z,18.30
2019-01-29T16:14:58.218Z,16.50
2019-01-29T16:15:58.188Z,16.00
2019-01-29T16:17:28.754Z,13.40
2019-01-29T16:18:28.648Z,13.60
2019-01-29T16:19:28.645Z,12.30
2019-01-29T16:20:28.626Z,14.90
2019-01-29T16:21:28.612Z,13.80
2019-01-29T16:22:28.599Z,15.50
2019-01-29T16:23:28.604Z,16.70
2019-01-29T16:24:28.578Z,17.80
2019-01-29T16:25:28.583Z,15.10
2019-01-29T16:26:28.560Z,14.20
2019-01-29T16:27:28.545Z,15.10
2019-01-29T16:28:28.535Z,17.30
2019-01-29T16:29:28.528Z,16.10
2019-01-29T16:30:28.515Z,16.60
2019-01-29T16:31:28.520Z,15.30
2019-01-29T16:32:28.492Z,14.90
2019-01-29T16:33:28.481Z,20.00
2019-01-29T16:34:28.474Z,18.20
2019-01-29T16:35:28.461Z,21.30
2019-01-29T16:36:28.464Z,19.70
2019-01-29T16:37:28.441Z,18.90
2019-01-29T16:38:28.428Z,17.50
2019-01-29T16:39:28.428Z,15.60
2019-01-29T16:40:28.409Z,18.70
2019-01-29T16:41:28.401Z,19.30
2019-01-29T16:42:28.396Z,18.10
2019-01-29T16:43:28.373Z,18.40
2019-01-29T16:44:28.365Z,14.00
2019-01-29T16:45:28.357Z,14.90
2019-01-29T16:46:28.349Z,15.20
2019-01-29T16:47:28.334Z,16.30
2019-01-29T16:48:28.341Z,16.60
2019-01-29T16:49:28.319Z,16.80
2019-01-29T16:50:28.328Z,16.10
2019-01-29T16:51:28.290Z,14.30
2019-01-29T16:52:28.982Z,17.90
2019-01-29T16:53:28.276Z,15.30
2019-01-29T16:54:28.258Z,16.50
2019-01-29T16:55:28.244Z,19.40
2019-01-29T16:56:28.244Z,15.40
2019-01-29T16:57:31.801Z,16.00
2019-01-29T16:58:28.279Z,19.10
2019-01-29T16:59:30.555Z,15.60
2019-01-29T17:01:31.406Z,19.00
2019-01-29T17:02:28.182Z,14.90
2019-01-29T17:03:29.810Z,18.10
2019-01-29T17:04:28.666Z,18.90
2019-01-29T17:05:28.533Z,17.90
2019-01-29T17:06:29.669Z,14.80
2019-01-29T17:07:28.460Z,15.90
2019-01-29T17:08:28.463Z,15.80
2019-01-29T17:09:28.185Z,14.10
2019-01-29T17:10:28.370Z,16.40
2019-01-29T17:11:28.212Z,16.30
2019-01-29T17:12:28.814Z,14.90
2019-01-29T17:13:28.062Z,15.90
2019-01-29T17:14:30.039Z,15.20
2019-01-29T17:15:28.384Z,15.70
2019-01-29T17:16:28.427Z,14.50
2019-01-29T17:17:28.346Z,14.70
2019-01-29T17:18:28.319Z,16.40
2019-01-29T17:19:28.002Z,17.20
2019-01-29T17:20:28.748Z,18.00
2019-01-29T17:21:28.252Z,14.90
2019-01-29T17:22:27.982Z,12.80
2019-01-29T17:23:27.961Z,12.50
2019-01-29T17:24:28.148Z,16.20
2019-01-29T17:25:27.998Z,15.70
2019-01-29T17:26:28.258Z,15.40
2019-01-29T17:27:28.014Z,17.20
2019-01-29T17:28:28.113Z,15.00
2019-01-29T17:29:28.275Z,18.60
2019-01-29T17:30:28.198Z,15.00
2019-01-29T17:31:28.670Z,14.30
2019-01-29T17:32:30.485Z,15.60
2019-01-29T17:33:28.248Z,14.30
2019-01-29T17:34:29.415Z,15.40
2019-01-29T17:35:28.481Z,17.40
2019-01-29T17:36:28.227Z,16.80
2019-01-29T17:37:28.139Z,18.30
2019-01-29T17:38:27.979Z,15.60